Data for 09/13/2018

Time Sea-Level Adjusted Pressure Absolute Pressure Temperature Relative Humidity Dew Point   
(mb) (inHg) (mb) (inHg) (C) (F) (%) (C) (F)
00:05 1016 30 845 24.95 9.2 48.6 64 2.8 37
00:10 1016 30 845 24.95 9.3 48.7 64 2.7 36.9
00:15 1016 30 845 24.95 9.2 48.6 64 2.7 36.9
00:20 1016 30 845 24.95 9.3 48.7 63 2.7 36.8
00:25 1015 29.97 845 24.95 9.3 48.7 63 2.7 36.8
00:30 1015 29.97 845 24.95 9.3 48.7 64 2.8 37
00:35 1015 29.97 845 24.95 9.2 48.6 64 2.9 37.2
00:40 1015 29.97 845 24.95 9.1 48.4 65 2.8 37.1
00:45 1015 29.97 845 24.95 9 48.2 65 2.9 37.2
00:50 1015 29.97 845 24.95 9 48.1 66 2.9 37.2
00:55 1015 29.97 845 24.95 8.9 48 65 2.8 37
01:00 1015 29.97 845 24.95 8.9 48.1 64 2.6 36.7
01:05 1015 29.97 844 24.92 9 48.1 64 2.6 36.7
01:10 1015 29.97 845 24.95 8.9 48.1 64 2.5 36.4
01:15 1015 29.97 845 24.95 9 48.2 64 2.5 36.5
01:20 1015 29.97 845 24.95 9.1 48.3 64 2.6 36.7
01:25 1015 29.97 845 24.95 9 48.3 64 2.6 36.7
01:30 1015 29.97 845 24.95 9 48.2 64 2.7 36.8
01:35 1015 29.97 845 24.95 9 48.1 65 2.7 36.9
01:40 1015 29.97 845 24.95 9 48.2 64 2.6 36.7
01:45 1016 30 845 24.95 9.1 48.3 64 2.6 36.6
01:50 1016 30 845 24.95 9.1 48.3 63 2.5 36.6
01:55 1016 30 845 24.95 9.1 48.5 63 2.6 36.7
02:00 1016 30 845 24.95 9.2 48.5 63 2.5 36.5
02:05 1016 30 845 24.95 9.3 48.7 62 2.5 36.5
02:10 1016 30 845 24.95 9.4 48.8 63 2.7 36.9
02:15 1016 30 845 24.95 9 48.3 65 2.8 37
02:20 1016 30 845 24.95 8.9 48.1 65 2.6 36.7
02:25 1016 30 845 24.95 9 48.2 64 2.5 36.6
02:30 1016 30 845 24.95 9 48.3 64 2.6 36.7
02:35 1016 30 845 24.95 8.9 48.1 65 2.8 37
02:40 1016 30 845 24.95 8.9 48 65 2.7 36.9
02:45 1016 30 845 24.95 9 48.3 65 2.8 37
02:50 1016 30 845 24.95 8.9 48 65 2.8 37.1
02:55 1016 30 845 24.95 9.1 48.4 64 2.7 36.9
03:00 1016 30 845 24.95 9.3 48.8 61 2.3 36.1
03:05 1016 30 845 24.95 9.3 48.7 63 2.7 36.8
03:10 1016 30 845 24.95 9.3 48.7 63 2.6 36.7
03:15 1016 30 845 24.95 9.5 49 63 2.9 37.2
03:20 1016 30 845 24.95 9.6 49.3 60 2.3 36.2
03:25 1016 30 845 24.95 9.7 49.5 60 2.4 36.3
03:30 1016 30 845 24.95 9.8 49.6 60 2.5 36.4
03:35 1016 30 845 24.95 9.7 49.4 61 2.6 36.6
03:40 1016 30 845 24.95 9.6 49.2 61 2.5 36.5
03:45 1016 30 845 24.95 9.6 49.2 62 2.8 37
03:50 1016 30 845 24.95 9.5 49.1 64 3 37.5
03:55 1016 30 845 24.95 9.5 49 62 2.6 36.6
04:00 1016 30 845 24.95 9.5 49.1 62 2.6 36.6
04:05 1016 30 845 24.95 9.5 49.1 62 2.7 36.8
04:10 1016 30 845 24.95 9.4 48.9 63 2.8 37.1
04:15 1016 30 845 24.95 9.3 48.8 63 2.7 36.9
04:20 1016 30 845 24.95 9.4 48.8 63 2.8 37
04:25 1016 30 845 24.95 9.4 48.9 63 2.6 36.7
04:30 1016 30 845 24.95 9.5 49.2 62 2.6 36.6
04:35 1016 30 845 24.95 9.7 49.5 62 2.9 37.2
04:40 1016 30 845 24.95 9.9 49.7 62 3 37.3
04:45 1016 30 845 24.95 9.9 49.8 62 3 37.4
04:50 1016 30 845 24.95 9.9 49.8 62 2.9 37.3
04:55 1016 30 845 24.95 9.9 49.9 61 2.9 37.3
05:00 1016 30 845 24.95 9.9 49.9 62 3.1 37.6
05:05 1016 30 846 24.98 10 49.9 63 3.2 37.7
05:10 1016 30 846 24.98 9.9 49.9 65 3.7 38.7
05:15 1016 30 846 24.98 9.4 48.9 70 4.2 39.5
05:20 1016 30 846 24.98 9 48.1 71 4 39.1
05:25 1016 30 846 24.98 8.8 47.8 73 4.1 39.5
05:30 1016 30 846 24.98 8.8 47.8 72 4 39.3
05:35 1016 30 846 24.98 8.7 47.6 73 4.1 39.5
05:40 1016 30 846 24.98 8.6 47.5 74 4.2 39.6
05:45 1016 30 846 24.98 8.6 47.5 74 4.2 39.6
05:50 1016 30 846 24.98 8.6 47.4 74 4.1 39.4
05:55 1016 30 846 24.98 8.6 47.4 74 4.2 39.6
06:00 1016 30 846 24.98 8.6 47.5 74 4.2 39.6
06:05 1016 30 846 24.98 8.6 47.5 73 4.1 39.4
06:10 1016 30 846 24.98 8.7 47.6 72 4 39.2
06:15 1017 30.03 846 24.98 8.7 47.7 73 4.1 39.4
06:20 1017 30.03 846 24.98 8.8 47.8 73 4.1 39.5
06:25 1016 30 846 24.98 8.7 47.6 74 4.3 39.8
06:30 1017 30.03 846 24.98 8.5 47.2 75 4.3 39.8
06:35 1017 30.03 846 24.98 8.3 46.9 76 4.3 39.7
06:40 1017 30.03 846 24.98 8.2 46.8 77 4.4 39.9
06:45 1017 30.03 846 24.98 8.2 46.8 76 4.2 39.6
06:50 1017 30.03 846 24.98 8.3 46.9 76 4.3 39.7
06:55 1017 30.03 846 24.98 8.2 46.8 75 4.1 39.4
07:00 1017 30.03 846 24.98 8.3 46.9 73 3.8 38.8
07:05 1017 30.03 846 24.98 8.5 47.2 72 3.7 38.7
07:10 1017 30.03 846 24.98 8.6 47.5 71 3.6 38.5
07:15 1017 30.03 846 24.98 8.8 47.8 72 4 39.2
07:20 1017 30.03 846 24.98 8.7 47.7 72 4 39.1
07:25 1017 30.03 846 24.98 8.7 47.7 73 4.2 39.6
07:30 1017 30.03 846 24.98 8.8 47.9 75 4.8 40.6
07:35 1017 30.03 846 24.98 8.9 47.9 76 4.8 40.7
07:40 1017 30.03 846 24.98 8.9 47.9 76 4.9 40.7
07:45 1017 30.03 846 24.98 9 48.2 77 5.1 41.2
07:50 1017 30.03 846 24.98 9 48.2 76 5 41
07:55 1017 30.03 846 24.98 9 48.2 77 5.1 41.2
08:00 1017 30.03 846 24.98 9 48.3 74 4.7 40.5
08:05 1017 30.03 846 24.98 9.2 48.6 76 5.3 41.5
08:10 1017 30.03 846 24.98 9 48.2 77 5.2 41.4
08:15 1017 30.03 846 24.98 8.8 47.9 79 5.4 41.7
08:20 1017 30.03 846 24.98 8.8 47.8 79 5.3 41.5
08:25 1017 30.03 846 24.98 8.8 47.8 77 5 41.1
08:30 1017 30.03 846 24.98 8.7 47.7 80 5.5 41.8
08:35 1017 30.03 846 24.98 8.7 47.6 81 5.6 42
08:40 1017 30.03 846 24.98 8.6 47.5 82 5.7 42.2
08:45 1017 30.03 846 24.98 8.6 47.4 81 5.5 41.9
08:50 1017 30.03 846 24.98 8.6 47.4 81 5.5 42
08:55 1017 30.03 847 25.01 8.6 47.5 81 5.5 41.9
09:00 1017 30.03 847 25.01 8.6 47.5 80 5.4 41.7
09:05 1017 30.03 847 25.01 8.7 47.6 80 5.4 41.8
09:10 1017 30.03 847 25.01 8.8 47.9 78 5.3 41.5
09:15 1017 30.03 847 25.01 9 48.1 79 5.6 42.1
09:20 1017 30.03 847 25.01 9 48.1 79 5.4 41.8
09:25 1017 30.03 846 24.98 8.8 47.9 79 5.4 41.8
09:30 1017 30.03 846 24.98 9 48.2 80 5.7 42.2
09:35 1017 30.03 846 24.98 9 48.3 80 5.8 42.5
09:40 1017 30.03 846 24.98 9 48.2 80 5.7 42.3
09:45 1017 30.03 846 24.98 9 48.1 80 5.7 42.3
09:50 1017 30.03 846 24.98 9 48.2 77 5.2 41.3
09:55 1017 30.03 846 24.98 9 48.3 78 5.3 41.6
10:00 1017 30.03 846 24.98 9.1 48.4 77 5.3 41.6
10:05 1017 30.03 846 24.98 9.2 48.5 76 5.1 41.2
10:10 1017 30.03 846 24.98 9.3 48.7 74 5 41
10:15 1017 30.03 846 24.98 9.4 48.9 75 5.1 41.2
10:20 1017 30.03 846 24.98 9.7 49.4 73 5 41
10:25 1017 30.03 847 25.01 9.8 49.7 74 5.4 41.6
10:30 1017 30.03 846 24.98 10.1 50.1 72 5.3 41.5
10:35 1017 30.03 847 25.01 10 50 72 5.1 41.3
10:40 1017 30.03 847 25.01 10.2 50.3 72 5.4 41.8
10:45 1017 30.03 846 24.98 10.3 50.5 71 5.2 41.3
10:50 1017 30.03 846 24.98 10.3 50.6 72 5.6 42.1
10:55 1017 30.03 846 24.98 10.7 51.2 69 5.2 41.4
11:00 1017 30.03 846 24.98 11 51.8 70 5.8 42.5
11:05 1017 30.03 846 24.98 11.5 52.6 71 6.4 43.6
11:10 1017 30.03 846 24.98 11.8 53.2 66 5.6 42.1
11:15 1017 30.03 846 24.98 12.1 53.8 55 3.4 38.2
11:20 1017 30.03 846 24.98 12.2 54 59 4.4 40
11:25 1017 30.03 846 24.98 12.6 54.7 56 4.3 39.7
11:30 1017 30.03 846 24.98 13.2 55.8 53 4 39.2
11:35 1017 30.03 846 24.98 13.3 55.9 53 3.9 39.1
11:40 1017 30.03 846 24.98 13.5 56.2 49 2.9 37.3
11:45 1017 30.03 846 24.98 13.8 56.8 51 3.9 39
11:50 1017 30.03 846 24.98 14.2 57.5 50 4 39.2
11:55 1017 30.03 846 24.98 14.5 58 48 3.8 38.8
12:00 1017 30.03 846 24.98 14.3 57.8 50 4.1 39.5
12:05 1017 30.03 846 24.98 13.6 56.5 51 3.8 38.8
12:10 1017 30.03 846 24.98 13.8 56.8 49 3.3 37.9
12:15 1017 30.03 846 24.98 14.7 58.4 47 3.6 38.5
12:20 1017 30.03 846 24.98 14.9 58.9 46 3.6 38.4
12:25 1017 30.03 846 24.98 15.4 59.7 44 3.3 38
12:30 1017 30.03 846 24.98 15 59.1 50 4.9 40.8
12:35 1017 30.03 846 24.98 14.6 58.3 49 4.2 39.5
12:40 1017 30.03 846 24.98 14.6 58.3 48 3.8 38.9
12:45 1017 30.03 846 24.98 15.1 59.2 45 3.3 38
12:50 1017 30.03 846 24.98 15.2 59.4 44 3 37.4
12:55 1017 30.03 846 24.98 14.9 58.9 44 2.8 37
13:00 1017 30.03 846 24.98 15 59 45 3.3 38
13:05 1017 30.03 846 24.98 15 59.1 42 2.3 36.1
13:10 1017 30.03 846 24.98 15 59.1 39 1.3 34.4
13:15 1017 30.03 846 24.98 15.1 59.3 36 0.3 32.6
13:20 1017 30.03 846 24.98 15.1 59.1 38 1.1 34
13:25 1017 30.03 846 24.98 14.9 58.9 43 2.5 36.5
13:30 1017 30.03 846 24.98 14.8 58.6 44 2.7 36.9
13:35 1017 30.03 846 24.98 14.7 58.5 43 2.5 36.5
13:40 1017 30.03 846 24.98 14.5 58.1 43 2.2 35.9
13:45 1017 30.03 846 24.98 14.2 57.5 43 2 35.6
13:50 1017 30.03 846 24.98 14.2 57.5 45 2.5 36.5
13:55 1017 30.03 846 24.98 14.2 57.5 45 2.5 36.5
14:00 1017 30.03 846 24.98 14 57.2 45 2.2 36
14:05 1017 30.03 846 24.98 14 57.3 45 2.3 36.1
14:10 1017 30.03 846 24.98 13.9 57.1 46 2.5 36.6
14:15 1017 30.03 846 24.98 14 57.2 46 2.6 36.7
14:20 1017 30.03 846 24.98 14 57.1 48 3.1 37.6
14:25 1017 30.03 846 24.98 14.1 57.4 44 2.2 36
14:30 1017 30.03 846 24.98 14.4 57.9 42 1.7 35.1
14:35 1017 30.03 846 24.98 14.6 58.3 42 1.8 35.2
14:40 1017 30.03 846 24.98 14.7 58.5 42 1.9 35.4
14:45 1017 30.03 846 24.98 14.7 58.5 40 1.5 34.7
14:50 1017 30.03 846 24.98 14.4 57.8 42 1.8 35.3
14:55 1017 30.03 846 24.98 14.5 58.1 42 1.8 35.3
15:00 1017 30.03 846 24.98 14.6 58.2 41 1.4 34.5
15:05 1017 30.03 846 24.98 14.5 58.2 39 0.9 33.7
15:10 1017 30.03 846 24.98 14.5 58.1 41 1.5 34.8
15:15 1017 30.03 846 24.98 14.2 57.5 40 0.8 33.4
15:20 1017 30.03 846 24.98 14.1 57.4 39 0.4 32.8
15:25 1017 30.03 846 24.98 13.8 56.8 42 1.3 34.3
15:30 1017 30.03 846 24.98 13.4 56.1 43 1.2 34.2
15:35 1017 30.03 846 24.98 13.4 56.2 42 1 33.7
15:40 1017 30.03 846 24.98 13.7 56.7 43 1.4 34.4
15:45 1017 30.03 846 24.98 13.8 56.8 42 1.1 34
15:50 1017 30.03 846 24.98 14 57.1 42 1.3 34.3
15:55 1017 30.03 846 24.98 14.1 57.5 40 0.8 33.5
16:00 1017 30.03 846 24.98 14.6 58.2 38 0.4 32.8
16:05 1017 30.03 846 24.98 15.2 59.4 33 -0.8 30.5
16:10 1017 30.03 846 24.98 15.9 60.6 32 -0.5 31.1
16:15 1017 30.03 846 24.98 16 60.8 32 -0.4 31.3
16:20 1017 30.03 846 24.98 15.8 60.4 32 -0.7 30.8
16:25 1017 30.03 846 24.98 16 60.9 31 -0.9 30.4
16:30 1017 30.03 846 24.98 15.9 60.7 32 -0.5 31.1
16:35 1017 30.03 846 24.98 16.2 61.2 31 -0.8 30.6
16:40 1017 30.03 846 24.98 16.1 61.1 32 -0.5 31.1
16:45 1017 30.03 846 24.98 16.2 61.2 32 -0.5 31.1
16:50 1017 30.03 846 24.98 16.1 61 32 -0.6 31
16:55 1017 30.03 846 24.98 16.6 61.9 31 -0.7 30.8
17:00 1017 30.03 846 24.98 17.1 62.9 30 -0.4 31.3
17:05 1017 30.03 846 24.98 18 64.5 28 -0.7 30.8
17:10 1017 30.03 846 24.98 18.2 64.7 28 -0.6 31
17:15 1017 30.03 846 24.98 18.5 65.2 27 -0.6 31
17:20 1017 30.03 846 24.98 18.7 65.7 26 -0.9 30.3
17:25 1017 30.03 846 24.98 18.8 65.9 26 -0.8 30.5
17:30 1017 30.03 846 24.98 18.7 65.7 26 -1 30.2
17:35 1017 30.03 846 24.98 18.8 65.8 26 -1.1 30
17:40 1017 30.03 846 24.98 18.7 65.7 24 -2.4 27.8
17:45 1017 30.03 846 24.98 18.7 65.6 25 -1.7 29
17:50 1017 30.03 846 24.98 18.4 65 25 -2.1 28.2
17:55 1017 30.03 846 24.98 18.3 64.9 25 -2.1 28.2
18:00 1017 30.03 846 24.98 18.2 64.8 25 -2 28.4
18:05 1017 30.03 846 24.98 18 64.3 25 -2.3 27.9
18:10 1017 30.03 846 24.98 17.6 63.7 26 -2.2 28.1
18:15 1017 30.03 846 24.98 17.3 63.1 26 -2.3 27.8
18:20 1017 30.03 846 24.98 17.1 62.8 27 -2.1 28.3
18:25 1017 30.03 846 24.98 16.9 62.5 27 -1.9 28.7
18:30 1017 30.03 846 24.98 16.8 62.2 29 -1.4 29.5
18:35 1017 30.03 846 24.98 16 60.8 35 0.5 32.9
18:40 1017 30.03 847 25.01 15 58.9 39 1.2 34.2
18:45 1018 30.06 847 25.01 14.1 57.4 41 1.3 34.4
18:50 1018 30.06 847 25.01 13.7 56.6 44 1.6 34.9
18:55 1018 30.06 847 25.01 13.4 56.1 46 2 35.5
19:00 1018 30.06 847 25.01 13 55.5 47 2.2 35.9
19:05 1018 30.06 847 25.01 12.8 55 49 2.3 36.1
19:10 1018 30.06 847 25.01 12.6 54.6 50 2.6 36.7
19:15 1018 30.06 848 25.04 12.3 54.2 55 3.6 38.5
19:20 1018 30.06 848 25.04 12.1 53.8 55 3.3 38
19:25 1019 30.09 848 25.04 12 53.6 55 3.2 37.8
19:30 1019 30.09 848 25.04 11.9 53.5 55 3.2 37.7
19:35 1019 30.09 848 25.04 11.9 53.4 55 3.3 37.9
19:40 1019 30.09 848 25.04 11.8 53.2 56 3.2 37.8
19:45 1019 30.09 848 25.04 11.7 53 56 3.3 38
19:50 1019 30.09 848 25.04 11.6 52.9 57 3.4 38.1
19:55 1019 30.09 848 25.04 11.4 52.4 58 3.4 38.2
20:00 1019 30.09 848 25.04 11.2 52.2 59 3.4 38.2
20:05 1019 30.09 848 25.04 11 51.8 59 3.4 38.2
20:10 1019 30.09 848 25.04 10.8 51.5 59 3.3 37.9
20:15 1019 30.09 848 25.04 10.8 51.5 59 3.2 37.7
20:20 1019 30.09 849 25.07 10.8 51.5 59 3.3 37.9
20:25 1019 30.09 849 25.07 10.6 51.2 60 3.2 37.8
20:30 1019 30.09 849 25.07 10.6 51 60 3.1 37.6
20:35 1019 30.09 849 25.07 10.5 51 59 3 37.4
20:40 1019 30.09 849 25.07 10.7 51.2 58 2.9 37.2
20:45 1019 30.09 849 25.07 10.8 51.4 58 3 37.4
20:50 1020 30.12 849 25.07 10.4 50.8 61 3.2 37.8
20:55 1020 30.12 849 25.07 9.9 49.9 62 3 37.4
21:00 1020 30.12 849 25.07 9.7 49.5 61 2.6 36.8
21:05 1020 30.12 849 25.07 9.6 49.3 61 2.6 36.6
21:10 1020 30.12 849 25.07 9.5 49 61 2.4 36.4
21:15 1020 30.12 849 25.07 9.2 48.6 63 2.5 36.5
21:20 1020 30.12 849 25.07 9 48.1 63 2.3 36.1
21:25 1020 30.12 849 25.07 8.8 47.8 64 2.4 36.2
21:30 1020 30.12 849 25.07 8.6 47.5 64 2.2 36
21:35 1020 30.12 849 25.07 8.7 47.7 62 1.9 35.3
21:40 1020 30.12 849 25.07 8.8 47.9 63 2.1 35.8
21:45 1020 30.12 849 25.07 8.5 47.4 64 2.2 36
21:50 1020 30.12 849 25.07 8.3 46.9 65 2.1 35.8
21:55 1020 30.12 849 25.07 8.2 46.8 65 2.1 35.8
22:00 1020 30.12 849 25.07 8.1 46.6 65 2 35.7
22:05 1020 30.12 849 25.07 8 46.4 65 1.9 35.5
22:10 1020 30.12 849 25.07 7.9 46.3 66 1.9 35.5
22:15 1020 30.12 849 25.07 8 46.3 65 1.9 35.4
22:20 1020 30.12 849 25.07 7.9 46.3 66 1.9 35.4
22:25 1020 30.12 849 25.07 7.9 46.3 65 1.9 35.4
22:30 1020 30.12 849 25.07 7.9 46.3 65 1.9 35.4
22:35 1020 30.12 849 25.07 8 46.3 65 1.8 35.3
22:40 1020 30.12 849 25.07 7.8 46.1 65 1.8 35.2
22:45 1020 30.12 849 25.07 7.5 45.6 69 2.3 36.1
22:50 1020 30.12 850 25.1 6.9 44.5 69 1.7 35.1
22:55 1020 30.12 850 25.1 7.4 45.3 66 1.5 34.8
23:00 1021 30.15 850 25.1 7.5 45.6 68 2.1 35.8
23:05 1021 30.15 850 25.1 7.3 45.1 69 2 35.6
23:10 1021 30.15 850 25.1 7.3 45.1 70 2.1 35.8
23:15 1021 30.15 850 25.1 7.2 44.9 69 2 35.5
23:20 1021 30.15 850 25.1 7.2 45 69 1.9 35.5
23:25 1021 30.15 850 25.1 7.3 45.2 69 2 35.5
23:30 1021 30.15 850 25.1 7 44.7 71 2.2 35.9
23:35 1021 30.15 850 25.1 6.6 44 72 2 35.6
23:40 1021 30.15 850 25.1 6.5 43.7 73 2.1 35.7
23:45 1021 30.15 850 25.1 6.4 43.6 73 1.9 35.4
23:50 1021 30.15 850 25.1 6.3 43.4 73 1.9 35.4
23:55 1021 30.15 850 25.1 6.2 43.1 74 1.9 35.4
24:00 1021 30.15 850 25.1 6.1 43 75 2 35.5